LGKO Airport Informations

Runway Information
Runway 14 Length 7841 ft width 148 ft
Elevation 412 ft Threshold ft Heading 148
Runway 32 Length 7841 ft Width 148 ft
Elevation 373 ft Threshold ft Heading 328
Airport Frequencies
Type A/G Name IPPOKRATIS Frequency 563.7 MHZ
Type APP Name APP Frequency 119.95 MHZ
Type ATIS Name ATIS Frequency 126.95 MHZ
Type TWR Name IPPOKRATIS Frequency 121.05 MHZ
Airport Navaids
Type VOR-DME Name Kos Frequency 109000 KHZ
Type NDB Name Kos Frequency 311 KHZ
Airport Weather Information & NOTAM
ADDS - METARS form results

(1306 UTC 14 August 2022)
Data provider http://aviationweather.gov/metar/data/
 
METAR text: LGKO 141250Z 29014KT CAVOK 28/21 Q1005
Conditions at: LGKO (KOS AIRPORT , GR) observed 1250 UTC 14 August 2022
Temperature: 28.0°C (82°F)
Dewpoint: 21.0°C (70°F) [RH = 66%]
Pressure (altimeter): 29.68 inches Hg (1005.0 mb)
Winds: from the WNW (290 degrees) at 16 MPH (14 knots; 7.2 m/s)
Visibility: 6 or more miles (10+ km)
Ceiling: ceiling and visibility are OK
Clouds: unknown
Weather: no significant weather observed at this time

METAR text: LGKO 141220Z 30010KT CAVOK 28/20 Q1005
Conditions at: LGKO (KOS AIRPORT , GR) observed 1220 UTC 14 August 2022
Temperature: 28.0°C (82°F)
Dewpoint: 20.0°C (68°F) [RH = 62%]
Pressure (altimeter): 29.68 inches Hg (1005.0 mb)
Winds: from the WNW (300 degrees) at 12 MPH (10 knots; 5.1 m/s)
Visibility: 6 or more miles (10+ km)
Ceiling: ceiling and visibility are OK
Clouds: unknown
Weather: no significant weather observed at this time

Forecast for: LGKO (KOS AIRPORT , GR)
Text: TAF LGKO 141100Z 1412/1512 30014KT 9999 FEW020
Forecast period: 1200 UTC 14 August 2022 to 1200 UTC 15 August 2022
Forecast type: FROM: standard forecast or significant change
Winds: from the WNW (300 degrees) at 16 MPH (14 knots; 7.2 m/s)
Visibility: 6 or more miles (10+ km)
Ceiling: at least 12,000 feet AGL
Clouds: few clouds at 2000 feet AGL
Weather: no significant weather forecast for this period